createdAt,value
2022-10-08T00:00:02.735Z,48.63
2022-10-08T00:01:44.421Z,48.20
2022-10-08T00:03:18.280Z,52.07
2022-10-08T00:04:52.688Z,52.17
2022-10-08T00:06:28.159Z,53.80
2022-10-08T00:08:00.240Z,50.23
2022-10-08T00:09:33.421Z,53.63
2022-10-08T00:11:08.186Z,50.90
2022-10-08T00:12:41.281Z,51.60
2022-10-08T00:14:14.397Z,48.67
2022-10-08T00:15:46.666Z,50.07
2022-10-08T00:17:19.813Z,49.50
2022-10-08T00:18:55.524Z,49.73
2022-10-08T00:20:29.933Z,43.97
2022-10-08T00:22:02.982Z,41.57
2022-10-08T00:23:36.258Z,40.60
2022-10-08T00:25:10.206Z,36.90
2022-10-08T00:26:44.639Z,42.07
2022-10-08T00:28:17.902Z,45.20
2022-10-08T00:29:52.217Z,49.93
2022-10-08T00:31:28.136Z,49.57
2022-10-08T00:33:02.493Z,49.13
2022-10-08T00:34:35.551Z,48.07
2022-10-08T00:36:12.498Z,50.43
2022-10-08T00:37:45.520Z,53.20
2022-10-08T00:39:20.451Z,47.97
2022-10-08T00:40:53.519Z,46.80
2022-10-08T00:42:26.747Z,49.00
2022-10-08T00:44:03.215Z,48.20
2022-10-08T00:45:35.367Z,56.40
2022-10-08T00:47:16.098Z,47.63
2022-10-08T00:48:49.205Z,55.03
2022-10-08T00:50:27.033Z,49.80
2022-10-08T00:52:01.254Z,46.30
2022-10-08T00:53:35.740Z,45.87
2022-10-08T00:55:10.759Z,46.83
2022-10-08T00:56:44.517Z,46.57
2022-10-08T00:58:21.352Z,42.53
2022-10-08T00:59:53.584Z,46.83
2022-10-08T01:01:26.949Z,47.93
2022-10-08T01:03:00.722Z,44.97
2022-10-08T01:04:33.985Z,46.67
2022-10-08T01:06:15.735Z,43.60
2022-10-08T01:07:55.347Z,44.60
2022-10-08T01:09:34.476Z,43.90
2022-10-08T01:11:22.170Z,43.77
2022-10-08T01:13:05.486Z,38.87
2022-10-08T01:14:49.828Z,37.80
2022-10-08T01:16:31.103Z,43.97
2022-10-08T01:18:10.637Z,43.90
2022-10-08T01:20:15.902Z,43.13
2022-10-08T01:22:00.580Z,48.57
2022-10-08T01:24:00.487Z,43.60
2022-10-08T01:25:40.565Z,40.13
2022-10-08T01:27:26.074Z,44.23
2022-10-08T01:29:03.487Z,42.87
2022-10-08T01:30:39.162Z,39.83
2022-10-08T01:32:17.058Z,41.40
2022-10-08T01:33:54.908Z,42.00
2022-10-08T01:35:33.231Z,41.00
2022-10-08T01:37:08.946Z,37.53
2022-10-08T01:38:46.994Z,40.93
2022-10-08T01:40:21.346Z,38.33
2022-10-08T01:41:57.327Z,41.43
2022-10-08T01:43:36.479Z,44.07
2022-10-08T01:45:15.185Z,38.63
2022-10-08T01:46:49.048Z,42.47
2022-10-08T01:48:27.599Z,43.57
2022-10-08T01:50:06.738Z,47.03
2022-10-08T01:51:47.382Z,43.97
2022-10-08T01:53:23.090Z,42.30
2022-10-08T01:54:59.019Z,44.97
2022-10-08T01:56:34.338Z,42.93
2022-10-08T01:58:13.435Z,42.10
2022-10-08T01:59:52.316Z,41.97
2022-10-08T02:01:30.111Z,45.17
2022-10-08T02:03:03.929Z,39.63
2022-10-08T02:04:37.470Z,43.63
2022-10-08T02:06:10.729Z,40.70
2022-10-08T02:07:43.711Z,39.73
2022-10-08T02:09:17.026Z,36.50
2022-10-08T02:10:50.066Z,37.90
2022-10-08T02:12:23.121Z,41.43
2022-10-08T02:13:56.509Z,40.10
2022-10-08T02:15:39.356Z,38.03
2022-10-08T02:17:24.448Z,37.93
2022-10-08T02:19:04.576Z,39.77
2022-10-08T02:20:41.136Z,38.40
2022-10-08T02:22:18.146Z,40.67
2022-10-08T02:23:55.587Z,35.10
2022-10-08T02:25:32.721Z,38.03
2022-10-08T02:27:08.644Z,39.80
2022-10-08T02:28:46.974Z,37.53
2022-10-08T02:30:19.497Z,34.43
2022-10-08T02:31:57.117Z,36.13
2022-10-08T02:33:37.014Z,35.87
2022-10-08T02:35:15.065Z,37.97
2022-10-08T02:36:52.712Z,38.20
2022-10-08T02:38:31.686Z,38.20
2022-10-08T02:40:08.014Z,34.80
2022-10-08T02:41:47.724Z,35.90
2022-10-08T02:43:25.263Z,32.60
2022-10-08T02:45:03.902Z,36.20
2022-10-08T02:46:40.786Z,33.77
2022-10-08T02:48:20.364Z,35.90
2022-10-08T02:49:56.016Z,36.77
2022-10-08T02:51:32.851Z,38.73
2022-10-08T02:53:06.933Z,37.23
2022-10-08T02:54:42.740Z,38.87
2022-10-08T02:56:21.118Z,37.77
2022-10-08T02:57:57.796Z,40.27
2022-10-08T02:59:33.067Z,39.77
2022-10-08T03:01:13.770Z,41.57
2022-10-08T03:02:53.422Z,39.40
2022-10-08T03:04:33.274Z,42.73
2022-10-08T03:06:09.882Z,36.77
2022-10-08T03:07:43.796Z,38.13
2022-10-08T03:09:19.215Z,36.47
2022-10-08T03:10:52.681Z,39.30
2022-10-08T03:12:26.307Z,37.50
2022-10-08T03:14:03.165Z,40.47
2022-10-08T03:15:37.446Z,37.50
2022-10-08T03:17:13.901Z,34.73
2022-10-08T03:18:47.801Z,36.33
2022-10-08T03:20:21.491Z,36.13
2022-10-08T03:21:57.445Z,38.23
2022-10-08T03:23:30.491Z,38.03
2022-10-08T03:25:03.502Z,37.03
2022-10-08T03:26:36.724Z,39.97
2022-10-08T03:28:09.765Z,41.97
2022-10-08T03:29:42.881Z,37.60
2022-10-08T03:31:15.937Z,41.30
2022-10-08T03:32:49.522Z,44.23
2022-10-08T03:34:23.081Z,41.37
2022-10-08T03:35:58.600Z,40.67
2022-10-08T03:37:31.646Z,37.67
2022-10-08T03:39:03.836Z,37.50
2022-10-08T03:40:36.857Z,40.57
2022-10-08T03:42:08.966Z,36.57
2022-10-08T03:43:42.380Z,43.37
2022-10-08T03:45:15.685Z,42.20
2022-10-08T03:46:49.207Z,48.00
2022-10-08T03:48:22.265Z,41.80
2022-10-08T03:49:55.344Z,41.17
2022-10-08T03:51:28.800Z,41.83
2022-10-08T03:53:01.821Z,44.93
2022-10-08T03:54:35.813Z,45.00
2022-10-08T03:56:11.813Z,42.70
2022-10-08T03:57:44.820Z,43.07
2022-10-08T03:59:17.857Z,46.53
2022-10-08T04:00:58.678Z,43.37
2022-10-08T04:02:32.441Z,41.40
2022-10-08T04:04:05.602Z,43.67
2022-10-08T04:05:38.630Z,42.37
2022-10-08T04:07:13.036Z,44.20
2022-10-08T04:08:45.369Z,42.53
2022-10-08T04:10:18.402Z,40.80
2022-10-08T04:11:51.423Z,41.17
2022-10-08T04:13:24.578Z,38.13
2022-10-08T04:14:57.666Z,42.53
2022-10-08T04:16:30.750Z,40.33
2022-10-08T04:18:03.810Z,39.70
2022-10-08T04:19:36.848Z,39.23
2022-10-08T04:21:10.958Z,40.37
2022-10-08T04:22:45.638Z,40.93
2022-10-08T04:24:18.947Z,40.00
2022-10-08T04:25:52.047Z,37.53
2022-10-08T04:27:25.090Z,37.97
2022-10-08T04:28:58.132Z,36.80
2022-10-08T04:30:30.260Z,41.03
2022-10-08T04:32:03.286Z,37.97
2022-10-08T04:33:36.379Z,38.17
2022-10-08T04:35:10.284Z,41.43
2022-10-08T04:36:43.348Z,39.20
2022-10-08T04:38:16.778Z,37.93
2022-10-08T04:39:49.807Z,42.20
2022-10-08T04:41:23.265Z,36.13
2022-10-08T04:42:56.287Z,39.13
2022-10-08T04:44:29.315Z,37.67
2022-10-08T04:46:01.477Z,39.80
2022-10-08T04:47:34.555Z,39.07
2022-10-08T04:49:07.581Z,40.37
2022-10-08T04:50:40.051Z,39.43
2022-10-08T04:52:13.787Z,39.90
2022-10-08T04:53:48.218Z,37.13
2022-10-08T04:55:24.722Z,39.43
2022-10-08T04:56:57.755Z,41.90
2022-10-08T04:58:30.788Z,43.53
2022-10-08T05:00:18.396Z,40.73
2022-10-08T05:01:52.793Z,41.27
2022-10-08T05:03:24.939Z,38.40
2022-10-08T05:04:57.988Z,36.63
2022-10-08T05:06:32.278Z,37.03
2022-10-08T05:08:04.317Z,43.03
2022-10-08T05:09:38.800Z,33.83
2022-10-08T05:11:11.953Z,41.80
2022-10-08T05:12:44.195Z,35.73
2022-10-08T05:14:17.342Z,39.90
2022-10-08T05:15:49.401Z,38.93
2022-10-08T05:17:22.429Z,36.57
2022-10-08T05:18:55.584Z,34.33
2022-10-08T05:20:28.628Z,36.07
2022-10-08T05:22:01.663Z,43.83
2022-10-08T05:23:34.703Z,42.87
2022-10-08T05:25:10.235Z,36.33
2022-10-08T05:26:59.373Z,36.33
2022-10-08T05:28:32.654Z,41.30
2022-10-08T05:30:06.660Z,41.20
2022-10-08T05:31:39.815Z,36.60
2022-10-08T05:33:12.844Z,35.03
2022-10-08T05:34:45.905Z,36.83
2022-10-08T05:36:20.038Z,36.17
2022-10-08T05:37:53.270Z,35.83
2022-10-08T05:39:26.358Z,37.10
2022-10-08T05:41:11.167Z,34.40
2022-10-08T05:42:44.631Z,33.07
2022-10-08T05:44:17.949Z,32.03
2022-10-08T05:45:51.716Z,34.60
2022-10-08T05:47:24.867Z,33.10
2022-10-08T05:48:59.715Z,32.47
2022-10-08T05:50:32.874Z,36.23
2022-10-08T05:52:05.931Z,31.70
2022-10-08T05:53:40.749Z,33.13
2022-10-08T05:55:13.843Z,31.07
2022-10-08T05:56:48.474Z,35.60
2022-10-08T05:58:21.509Z,37.03
2022-10-08T05:59:54.549Z,33.80
2022-10-08T06:01:31.240Z,33.43
2022-10-08T06:03:04.565Z,33.03
2022-10-08T06:04:37.738Z,32.60
2022-10-08T06:06:11.526Z,36.87
2022-10-08T06:07:44.623Z,30.60
2022-10-08T06:09:18.771Z,29.50
2022-10-08T06:10:52.394Z,28.27
2022-10-08T06:12:26.763Z,31.00
2022-10-08T06:14:00.262Z,27.97
2022-10-08T06:15:33.291Z,26.40
2022-10-08T06:17:06.315Z,26.87
2022-10-08T06:18:40.437Z,28.97
2022-10-08T06:20:13.616Z,21.50
2022-10-08T06:21:46.621Z,27.13
2022-10-08T06:23:19.512Z,25.23
2022-10-08T06:24:52.548Z,22.50
2022-10-08T06:26:31.648Z,20.17
2022-10-08T06:28:08.977Z,25.13
2022-10-08T06:29:42.039Z,21.40
2022-10-08T06:31:14.228Z,29.17
2022-10-08T06:32:47.462Z,24.03
2022-10-08T06:34:20.992Z,23.60
2022-10-08T06:35:54.216Z,24.20
2022-10-08T06:37:27.344Z,24.40
2022-10-08T06:39:02.069Z,23.27
2022-10-08T06:40:38.978Z,23.53
2022-10-08T06:42:12.111Z,22.47
2022-10-08T06:43:47.110Z,21.23
2022-10-08T06:45:20.432Z,24.80
2022-10-08T06:46:53.553Z,24.47
2022-10-08T06:48:26.313Z,23.87
2022-10-08T06:49:59.332Z,24.63
2022-10-08T06:51:32.380Z,25.93
2022-10-08T06:53:06.264Z,25.80
2022-10-08T06:54:39.524Z,26.00
2022-10-08T06:56:14.723Z,27.47
2022-10-08T06:57:47.902Z,23.90
2022-10-08T06:59:22.306Z,27.60
2022-10-08T07:01:02.516Z,26.63
2022-10-08T07:02:35.648Z,25.57
2022-10-08T07:04:08.751Z,31.20
2022-10-08T07:05:40.785Z,25.73
2022-10-08T07:07:13.942Z,30.57
2022-10-08T07:08:47.440Z,28.00
2022-10-08T07:10:19.633Z,33.97
2022-10-08T07:11:52.633Z,31.57
2022-10-08T07:13:24.710Z,30.90
2022-10-08T07:14:59.168Z,31.53
2022-10-08T07:16:32.304Z,30.73
2022-10-08T07:18:05.614Z,34.57
2022-10-08T07:19:38.836Z,43.10
2022-10-08T07:21:14.606Z,41.90
2022-10-08T07:22:47.901Z,31.90
2022-10-08T07:24:21.116Z,30.67
2022-10-08T07:25:58.715Z,30.07
2022-10-08T07:27:31.871Z,31.87
2022-10-08T07:29:07.483Z,28.63
2022-10-08T07:30:40.921Z,29.07
2022-10-08T07:32:13.955Z,32.43
2022-10-08T07:33:47.157Z,23.57
2022-10-08T07:35:20.211Z,25.73
2022-10-08T07:36:53.290Z,29.80
2022-10-08T07:38:26.323Z,25.73
2022-10-08T07:39:59.428Z,24.97
2022-10-08T07:41:32.931Z,24.77
2022-10-08T07:43:06.148Z,23.80
2022-10-08T07:44:39.297Z,23.10
2022-10-08T07:46:14.366Z,22.37
2022-10-08T07:47:47.817Z,55.63
2022-10-08T07:49:21.408Z,21.20
2022-10-08T07:50:54.447Z,24.63
2022-10-08T07:52:27.446Z,22.40
2022-10-08T07:54:02.683Z,20.03
2022-10-08T07:55:34.988Z,20.67
2022-10-08T07:57:08.206Z,21.83
2022-10-08T07:58:40.675Z,19.23
2022-10-08T08:00:14.560Z,21.80
2022-10-08T08:01:48.945Z,19.50
2022-10-08T08:03:22.009Z,19.67
2022-10-08T08:04:54.038Z,17.83
2022-10-08T08:06:27.716Z,15.47
2022-10-08T08:08:00.749Z,13.20
2022-10-08T08:09:33.892Z,11.87
2022-10-08T08:11:09.093Z,9.60
2022-10-08T08:12:42.160Z,8.37
2022-10-08T08:14:15.220Z,8.43
2022-10-08T08:15:48.291Z,9.47
2022-10-08T08:17:22.682Z,10.60
2022-10-08T08:18:57.667Z,11.40
2022-10-08T08:20:30.680Z,8.73
2022-10-08T08:22:03.773Z,7.97
2022-10-08T08:23:39.377Z,11.03
2022-10-08T08:25:12.475Z,16.90
2022-10-08T08:26:45.992Z,10.83
2022-10-08T08:28:19.088Z,9.43
2022-10-08T08:29:52.152Z,12.43
2022-10-08T08:31:27.265Z,9.30
2022-10-08T08:33:01.706Z,7.77
2022-10-08T08:34:34.765Z,8.97
2022-10-08T08:36:07.267Z,9.83
2022-10-08T08:37:40.293Z,9.47
2022-10-08T08:39:17.260Z,9.27
2022-10-08T08:40:50.392Z,12.20
2022-10-08T08:42:51.559Z,11.00
2022-10-08T08:44:26.273Z,9.93
2022-10-08T08:45:59.370Z,7.77
2022-10-08T08:47:37.040Z,9.83
2022-10-08T08:49:18.325Z,10.93
2022-10-08T08:50:55.163Z,8.10
2022-10-08T08:52:33.838Z,10.50
2022-10-08T08:54:06.966Z,9.80
2022-10-08T08:55:43.756Z,10.03
2022-10-08T08:57:32.081Z,9.40
2022-10-08T08:59:10.211Z,9.47
2022-10-08T09:00:46.033Z,9.57
2022-10-08T09:02:24.329Z,8.53
2022-10-08T09:04:00.602Z,9.03
2022-10-08T09:05:41.533Z,8.47
2022-10-08T09:07:19.520Z,8.07
2022-10-08T09:08:57.166Z,7.83
2022-10-08T09:10:40.554Z,6.20
2022-10-08T09:12:20.967Z,8.87
2022-10-08T09:13:59.210Z,8.53
2022-10-08T09:15:37.937Z,9.83
2022-10-08T09:17:16.103Z,8.50
2022-10-08T09:18:51.050Z,6.53
2022-10-08T09:20:25.508Z,8.87
2022-10-08T09:21:59.929Z,11.37
2022-10-08T09:23:33.502Z,8.63
2022-10-08T09:25:09.028Z,8.00
2022-10-08T09:26:41.740Z,7.17
2022-10-08T09:28:39.015Z,8.87
2022-10-08T09:30:29.530Z,7.60
2022-10-08T09:32:02.898Z,8.07
2022-10-08T09:33:35.051Z,6.13
2022-10-08T09:35:10.319Z,8.27
2022-10-08T09:36:46.616Z,9.37
2022-10-08T09:38:24.815Z,8.17
2022-10-08T09:40:19.008Z,10.07
2022-10-08T09:42:14.967Z,8.60
2022-10-08T09:44:11.301Z,11.10
2022-10-08T09:45:46.515Z,9.57
2022-10-08T09:47:21.805Z,7.30
2022-10-08T09:48:54.832Z,9.40
2022-10-08T09:50:27.917Z,8.80
2022-10-08T09:52:05.811Z,9.10
2022-10-08T09:53:44.161Z,9.27
2022-10-08T09:55:22.109Z,6.57
2022-10-08T09:56:57.887Z,8.67
2022-10-08T09:58:34.226Z,6.83
2022-10-08T10:00:11.222Z,11.57
2022-10-08T10:01:46.806Z,8.70
2022-10-08T10:03:21.059Z,7.63
2022-10-08T10:04:55.444Z,9.00
2022-10-08T10:06:30.961Z,8.87
2022-10-08T10:08:04.722Z,10.27
2022-10-08T10:09:45.432Z,8.37
2022-10-08T10:11:26.824Z,8.93
2022-10-08T10:13:05.974Z,7.37
2022-10-08T10:14:44.771Z,8.67
2022-10-08T10:16:24.302Z,8.73
2022-10-08T10:18:00.849Z,5.80
2022-10-08T10:19:40.808Z,5.90
2022-10-08T10:21:17.179Z,7.23
2022-10-08T10:22:55.720Z,9.00
2022-10-08T10:24:45.785Z,9.50
2022-10-08T10:26:23.547Z,9.73
2022-10-08T10:28:00.708Z,10.50
2022-10-08T10:29:53.121Z,8.97
2022-10-08T10:31:32.813Z,11.33
2022-10-08T10:33:13.809Z,8.03
2022-10-08T10:34:51.212Z,7.87
2022-10-08T10:36:26.544Z,8.90
2022-10-08T10:38:06.797Z,8.37
2022-10-08T10:39:47.223Z,8.97
2022-10-08T10:41:29.979Z,9.73
2022-10-08T10:43:17.414Z,6.77
2022-10-08T10:44:54.097Z,10.43
2022-10-08T10:46:33.158Z,7.70
2022-10-08T10:48:08.123Z,9.17
2022-10-08T10:49:43.623Z,8.87
2022-10-08T10:51:35.380Z,8.00
2022-10-08T10:53:16.803Z,8.00
2022-10-08T10:55:09.366Z,10.30
2022-10-08T10:56:48.630Z,8.57
2022-10-08T10:58:36.383Z,9.83
2022-10-08T11:00:18.708Z,9.70
2022-10-08T11:02:01.631Z,7.67
2022-10-08T11:03:43.198Z,8.93
2022-10-08T11:05:21.683Z,7.40
2022-10-08T11:07:03.417Z,4.73
2022-10-08T11:08:43.707Z,12.50
2022-10-08T11:10:34.795Z,12.97
2022-10-08T11:12:26.942Z,10.13
2022-10-08T11:14:18.782Z,7.70
2022-10-08T11:16:04.841Z,6.63
2022-10-08T11:17:54.653Z,7.40
2022-10-08T11:19:40.385Z,9.17
2022-10-08T11:21:26.123Z,7.37
2022-10-08T11:23:05.511Z,6.60
2022-10-08T11:24:58.905Z,6.87
2022-10-08T11:26:40.669Z,6.37
2022-10-08T11:28:25.267Z,6.50
2022-10-08T11:30:04.645Z,7.63
2022-10-08T11:31:42.376Z,7.27
2022-10-08T11:33:18.208Z,5.37
2022-10-08T11:34:54.412Z,7.83
2022-10-08T11:36:36.597Z,7.93
2022-10-08T11:38:18.201Z,5.53
2022-10-08T11:39:58.372Z,6.40
2022-10-08T11:41:41.065Z,6.90
2022-10-08T11:43:21.939Z,8.50
2022-10-08T11:44:55.063Z,9.23
2022-10-08T11:46:30.628Z,5.50
2022-10-08T11:48:31.537Z,6.37
2022-10-08T11:50:05.966Z,7.90
2022-10-08T11:51:40.506Z,7.33
2022-10-08T11:53:18.932Z,6.27
2022-10-08T11:54:55.835Z,4.37
2022-10-08T11:56:28.586Z,5.13
2022-10-08T11:58:08.517Z,4.47
2022-10-08T11:59:44.863Z,4.20
2022-10-08T12:01:18.043Z,6.70
2022-10-08T12:02:54.235Z,7.33
2022-10-08T12:04:31.789Z,4.97
2022-10-08T12:06:16.512Z,7.83
2022-10-08T12:07:52.156Z,8.47
2022-10-08T12:09:25.913Z,6.97
2022-10-08T12:11:37.559Z,8.27
2022-10-08T12:13:28.348Z,6.40
2022-10-08T12:15:01.432Z,5.47
2022-10-08T12:17:13.128Z,6.10
2022-10-08T12:18:45.323Z,5.43
2022-10-08T12:20:23.865Z,5.97
2022-10-08T12:21:56.970Z,5.57
2022-10-08T12:23:40.068Z,7.07
2022-10-08T12:25:44.249Z,6.57
2022-10-08T12:27:28.511Z,4.47
2022-10-08T12:29:02.944Z,5.90
2022-10-08T12:30:58.491Z,7.17
2022-10-08T12:32:33.751Z,7.80
2022-10-08T12:34:17.609Z,4.73
2022-10-08T12:35:59.867Z,3.83
2022-10-08T12:37:54.449Z,4.73
2022-10-08T12:39:36.309Z,5.63
2022-10-08T12:41:20.847Z,4.40
2022-10-08T12:43:09.025Z,4.27
2022-10-08T12:44:55.641Z,5.13
2022-10-08T12:46:37.352Z,9.27
2022-10-08T12:48:16.331Z,6.93
2022-10-08T12:49:57.182Z,8.17
2022-10-08T12:51:39.979Z,5.50
2022-10-08T12:53:15.866Z,9.47
2022-10-08T12:54:51.188Z,9.37
2022-10-08T12:56:28.089Z,6.30
2022-10-08T12:58:01.515Z,7.33
2022-10-08T12:59:35.265Z,5.03
2022-10-08T13:01:15.008Z,11.03
2022-10-08T13:03:00.515Z,7.70
2022-10-08T13:04:34.649Z,6.90
2022-10-08T13:06:31.641Z,5.23
2022-10-08T13:08:26.983Z,7.77
2022-10-08T13:10:02.218Z,4.60
2022-10-08T13:11:35.272Z,3.03
2022-10-08T13:13:34.297Z,2.33
2022-10-08T13:15:09.213Z,4.90
2022-10-08T13:16:47.812Z,2.37
2022-10-08T13:18:22.987Z,2.67
2022-10-08T13:20:07.565Z,6.30
2022-10-08T13:21:40.624Z,4.80
2022-10-08T13:23:25.560Z,5.07
2022-10-08T13:24:58.704Z,5.00
2022-10-08T13:26:41.628Z,5.20
2022-10-08T13:28:16.328Z,5.07
2022-10-08T13:29:51.726Z,3.43
2022-10-08T13:31:24.299Z,5.83
2022-10-08T13:33:04.366Z,5.97
2022-10-08T13:34:43.836Z,4.10
2022-10-08T13:36:22.124Z,5.03
2022-10-08T13:37:56.097Z,3.50
2022-10-08T13:39:31.679Z,3.70
2022-10-08T13:41:06.338Z,4.30
2022-10-08T13:42:43.691Z,6.23
2022-10-08T13:44:17.087Z,5.83
2022-10-08T13:45:51.493Z,3.93
2022-10-08T13:47:24.565Z,3.80
2022-10-08T13:48:56.602Z,3.77
2022-10-08T13:50:30.042Z,3.40
2022-10-08T13:52:02.630Z,4.33
2022-10-08T13:53:36.007Z,5.03
2022-10-08T13:55:21.985Z,2.87
2022-10-08T13:56:55.442Z,3.43
2022-10-08T13:58:28.527Z,3.80
2022-10-08T14:00:01.549Z,2.50
2022-10-08T14:01:36.043Z,4.43
2022-10-08T14:03:09.716Z,4.37
2022-10-08T14:04:42.773Z,4.13
2022-10-08T14:06:15.859Z,1.93
2022-10-08T14:07:50.635Z,2.23
2022-10-08T14:09:30.485Z,5.30
2022-10-08T14:11:03.573Z,4.87
2022-10-08T14:12:37.087Z,4.83
2022-10-08T14:14:12.829Z,3.93
2022-10-08T14:15:46.030Z,5.13
2022-10-08T14:17:20.612Z,4.57
2022-10-08T14:18:55.995Z,5.80
2022-10-08T14:20:32.298Z,5.63
2022-10-08T14:22:05.318Z,4.23
2022-10-08T14:23:37.362Z,2.83
2022-10-08T14:25:17.625Z,5.73
2022-10-08T14:26:50.968Z,4.80
2022-10-08T14:28:24.043Z,4.67
2022-10-08T14:29:57.065Z,5.70
2022-10-08T14:31:30.217Z,5.27
2022-10-08T14:33:08.950Z,7.07
2022-10-08T14:34:44.180Z,6.73
2022-10-08T14:36:19.977Z,7.30
2022-10-08T14:37:53.289Z,5.73
2022-10-08T14:39:26.794Z,7.03
2022-10-08T14:41:00.728Z,7.53
2022-10-08T14:42:33.831Z,10.70
2022-10-08T14:44:07.012Z,7.00
2022-10-08T14:45:40.154Z,5.63
2022-10-08T14:47:13.272Z,5.70
2022-10-08T14:48:47.679Z,6.10
2022-10-08T14:50:20.808Z,6.47
2022-10-08T14:51:53.853Z,7.50
2022-10-08T14:53:27.298Z,7.40
2022-10-08T14:55:00.352Z,6.90
2022-10-08T14:56:33.439Z,8.33
2022-10-08T14:58:06.625Z,6.73
2022-10-08T14:59:41.160Z,8.73
2022-10-08T15:01:14.233Z,6.70
2022-10-08T15:02:47.462Z,9.00
2022-10-08T15:04:22.160Z,6.97
2022-10-08T15:05:57.976Z,5.87
2022-10-08T15:07:31.201Z,5.80
2022-10-08T15:09:04.314Z,7.97
2022-10-08T15:10:37.787Z,5.43
2022-10-08T15:12:11.031Z,5.00
2022-10-08T15:13:44.106Z,4.83
2022-10-08T15:15:19.705Z,8.20
2022-10-08T15:16:52.868Z,7.33
2022-10-08T15:18:26.367Z,9.10
2022-10-08T15:20:00.869Z,6.57
2022-10-08T15:21:33.988Z,3.93
2022-10-08T15:23:09.570Z,5.00
2022-10-08T15:24:42.600Z,4.50
2022-10-08T15:26:18.009Z,3.53
2022-10-08T15:27:51.065Z,3.20
2022-10-08T15:29:24.078Z,4.07
2022-10-08T15:31:02.811Z,2.73
2022-10-08T15:32:37.189Z,4.93
2022-10-08T15:34:17.236Z,4.87
2022-10-08T15:35:51.628Z,3.20
2022-10-08T15:37:24.682Z,5.13
2022-10-08T15:38:59.347Z,4.43
2022-10-08T15:40:32.494Z,5.73
2022-10-08T15:42:05.832Z,3.23
2022-10-08T15:43:38.863Z,3.83
2022-10-08T15:45:11.944Z,4.07
2022-10-08T15:46:45.279Z,5.20
2022-10-08T15:48:18.299Z,5.87
2022-10-08T15:49:51.725Z,4.83
2022-10-08T15:51:26.363Z,6.17
2022-10-08T15:52:59.400Z,3.13
2022-10-08T15:54:32.511Z,4.37
2022-10-08T15:56:05.733Z,4.30
2022-10-08T15:57:38.941Z,5.17
2022-10-08T15:59:12.011Z,3.57
2022-10-08T16:00:45.115Z,4.00
2022-10-08T16:02:18.775Z,4.13
2022-10-08T16:03:53.299Z,3.83
2022-10-08T16:05:26.326Z,3.30
2022-10-08T16:06:59.760Z,5.17
2022-10-08T16:08:33.478Z,5.93
2022-10-08T16:10:07.777Z,5.00
2022-10-08T16:11:40.880Z,5.20
2022-10-08T16:13:13.959Z,3.47
2022-10-08T16:14:47.000Z,9.03
2022-10-08T16:16:20.537Z,4.90
2022-10-08T16:17:53.599Z,7.53
2022-10-08T16:19:28.229Z,6.53
2022-10-08T16:21:03.488Z,3.23
2022-10-08T16:22:37.933Z,5.17
2022-10-08T16:24:11.085Z,4.70
2022-10-08T16:25:45.593Z,3.40
2022-10-08T16:27:18.681Z,5.70
2022-10-08T16:28:55.028Z,5.57
2022-10-08T16:30:28.361Z,4.30
2022-10-08T16:32:01.531Z,7.07
2022-10-08T16:33:34.890Z,4.70
2022-10-08T16:35:08.416Z,6.23
2022-10-08T16:36:42.104Z,3.13
2022-10-08T16:38:16.492Z,5.47
2022-10-08T16:39:49.527Z,5.67
2022-10-08T16:41:23.652Z,6.97
2022-10-08T16:42:56.702Z,4.50
2022-10-08T16:44:29.811Z,6.40
2022-10-08T16:46:03.079Z,5.20
2022-10-08T16:47:36.151Z,4.67
2022-10-08T16:49:13.364Z,6.10
2022-10-08T16:50:46.397Z,7.53
2022-10-08T16:52:19.413Z,5.60
2022-10-08T16:53:54.601Z,5.40
2022-10-08T16:55:27.622Z,5.40
2022-10-08T16:57:00.721Z,6.20
2022-10-08T16:58:32.768Z,4.23
2022-10-08T17:00:07.051Z,6.87
2022-10-08T17:01:42.475Z,7.17
2022-10-08T17:03:15.924Z,6.33
2022-10-08T17:04:48.957Z,4.57
2022-10-08T17:06:23.814Z,4.67
2022-10-08T17:07:56.955Z,5.77
2022-10-08T17:09:32.340Z,6.50
2022-10-08T17:11:06.781Z,5.07
2022-10-08T17:12:39.861Z,5.20
2022-10-08T17:14:13.666Z,4.57
2022-10-08T17:15:45.705Z,4.37
2022-10-08T17:17:18.768Z,5.87
2022-10-08T17:18:53.451Z,5.53
2022-10-08T17:20:26.537Z,3.77
2022-10-08T17:21:59.563Z,5.67
2022-10-08T17:23:36.716Z,6.33
2022-10-08T17:25:11.396Z,6.40
2022-10-08T17:26:44.456Z,7.87
2022-10-08T17:28:17.515Z,5.33
2022-10-08T17:29:50.736Z,5.50
2022-10-08T17:31:25.820Z,4.53
2022-10-08T17:32:58.864Z,6.23
2022-10-08T17:34:31.859Z,3.43
2022-10-08T17:36:07.388Z,6.37
2022-10-08T17:37:40.437Z,7.00
2022-10-08T17:39:15.097Z,7.83
2022-10-08T17:40:48.503Z,8.13
2022-10-08T17:42:21.653Z,8.00
2022-10-08T17:43:56.705Z,6.00
2022-10-08T17:45:29.771Z,6.73
2022-10-08T17:47:02.829Z,6.67
2022-10-08T17:48:36.206Z,6.63
2022-10-08T17:50:09.740Z,7.23
2022-10-08T17:51:43.008Z,5.20
2022-10-08T17:53:16.064Z,8.30
2022-10-08T17:54:49.119Z,7.70
2022-10-08T17:56:24.451Z,8.10
2022-10-08T17:57:57.469Z,6.93
2022-10-08T17:59:30.526Z,8.50
2022-10-08T18:01:06.949Z,11.23
2022-10-08T18:02:40.139Z,10.80
2022-10-08T18:04:15.065Z,7.97
2022-10-08T18:05:57.508Z,8.60
2022-10-08T18:07:30.538Z,8.13
2022-10-08T18:09:06.146Z,9.97
2022-10-08T18:10:39.404Z,8.27
2022-10-08T18:12:14.058Z,8.63
2022-10-08T18:13:47.281Z,6.70
2022-10-08T18:15:20.298Z,8.40
2022-10-08T18:16:53.380Z,9.10
2022-10-08T18:18:26.620Z,11.90
2022-10-08T18:19:59.690Z,7.97
2022-10-08T18:21:32.811Z,8.80
2022-10-08T18:23:08.246Z,9.17
2022-10-08T18:24:41.297Z,9.60
2022-10-08T18:26:18.313Z,10.30
2022-10-08T18:27:55.941Z,6.50
2022-10-08T18:29:29.043Z,7.60
2022-10-08T18:31:05.089Z,6.40
2022-10-08T18:32:38.142Z,8.20
2022-10-08T18:34:13.973Z,9.57
2022-10-08T18:35:46.981Z,8.87
2022-10-08T18:37:20.615Z,7.50
2022-10-08T18:38:56.083Z,10.30
2022-10-08T18:40:30.933Z,7.33
2022-10-08T18:42:04.012Z,12.37
2022-10-08T18:43:38.468Z,12.73
2022-10-08T18:45:12.219Z,11.17
2022-10-08T18:46:45.554Z,10.33
2022-10-08T18:48:18.604Z,10.50
2022-10-08T18:49:51.687Z,15.10
2022-10-08T18:51:26.677Z,9.50
2022-10-08T18:52:59.721Z,9.23
2022-10-08T18:54:32.786Z,9.73
2022-10-08T18:56:09.564Z,8.40
2022-10-08T18:57:42.579Z,10.10
2022-10-08T18:59:18.153Z,6.70
2022-10-08T19:00:51.297Z,6.17
2022-10-08T19:02:24.427Z,7.23
2022-10-08T19:03:59.251Z,9.10
2022-10-08T19:05:32.309Z,5.53
2022-10-08T19:07:05.352Z,6.57
2022-10-08T19:08:37.381Z,5.03
2022-10-08T19:10:11.091Z,5.13
2022-10-08T19:11:45.951Z,4.80
2022-10-08T19:13:19.907Z,6.70
2022-10-08T19:14:54.544Z,4.53
2022-10-08T19:16:26.848Z,5.80
2022-10-08T19:17:59.933Z,4.73
2022-10-08T19:19:32.998Z,8.43
2022-10-08T19:21:09.889Z,5.67
2022-10-08T19:22:43.094Z,4.90
2022-10-08T19:24:18.507Z,5.90
2022-10-08T19:25:54.531Z,5.10
2022-10-08T19:27:27.547Z,6.67
2022-10-08T19:29:00.831Z,5.83
2022-10-08T19:30:35.435Z,3.83
2022-10-08T19:32:08.489Z,5.10
2022-10-08T19:33:41.524Z,4.70
2022-10-08T19:35:14.645Z,5.67
2022-10-08T19:36:47.831Z,4.87
2022-10-08T19:38:20.864Z,4.77
2022-10-08T19:39:53.891Z,4.93
2022-10-08T19:41:27.932Z,4.60
2022-10-08T19:43:00.947Z,6.90
2022-10-08T19:44:34.012Z,5.77
2022-10-08T19:46:08.637Z,6.73
2022-10-08T19:47:41.724Z,6.10
2022-10-08T19:49:15.278Z,4.87
2022-10-08T19:50:48.312Z,7.90
2022-10-08T19:52:21.346Z,8.53
2022-10-08T19:53:53.912Z,6.20
2022-10-08T19:55:26.979Z,5.20
2022-10-08T19:57:00.089Z,5.57
2022-10-08T19:58:33.161Z,5.20
2022-10-08T20:00:08.356Z,4.70
2022-10-08T20:01:43.734Z,4.10
2022-10-08T20:03:15.880Z,5.47
2022-10-08T20:04:48.935Z,4.70
2022-10-08T20:06:24.797Z,4.30
2022-10-08T20:07:58.045Z,7.63
2022-10-08T20:09:35.876Z,5.73
2022-10-08T20:11:10.923Z,5.67
2022-10-08T20:12:44.440Z,6.53
2022-10-08T20:14:17.664Z,6.07
2022-10-08T20:15:51.481Z,5.37
2022-10-08T20:17:26.219Z,6.47
2022-10-08T20:19:01.451Z,5.90
2022-10-08T20:20:34.509Z,5.37
2022-10-08T20:22:11.675Z,5.60
2022-10-08T20:23:45.633Z,4.43
2022-10-08T20:25:20.617Z,3.90
2022-10-08T20:26:53.726Z,5.23
2022-10-08T20:28:25.786Z,14.00
2022-10-08T20:29:58.876Z,9.10
2022-10-08T20:31:33.762Z,7.33
2022-10-08T20:33:08.267Z,5.03
2022-10-08T20:34:41.301Z,7.43
2022-10-08T20:36:16.005Z,4.77
2022-10-08T20:37:49.025Z,5.07
2022-10-08T20:39:23.511Z,5.47
2022-10-08T20:40:55.625Z,4.33
2022-10-08T20:42:29.064Z,4.60
2022-10-08T20:44:03.043Z,4.50
2022-10-08T20:45:36.320Z,5.73
2022-10-08T20:47:09.358Z,5.47
2022-10-08T20:48:44.912Z,5.20
2022-10-08T20:50:17.944Z,7.63
2022-10-08T20:51:51.461Z,4.47
2022-10-08T20:53:23.610Z,4.73
2022-10-08T20:54:56.691Z,4.77
2022-10-08T20:56:33.638Z,4.00